Time;durP1;ratioP1;P1;durP2;ratioP2;P2;SDS_P1;SDS_P2;PMS_P1;PMS_P2;Temp;Humidity;BMP_temperature;BMP_pressure;BME280_temperature;BME280_humidity;BME280_pressure;Samples;Min_cycle;Max_cycle;Signal;HPM_P1;HPM_P2
2021/08/23 00:00:44;;;;;;;19.92;12.68;;;15.90;99.90;;;;;;4962225;28;20047;-93
2021/08/23 00:03:10;;;;;;;25.30;16.65;;;15.80;99.90;;;;;;4944873;29;20061;-94
2021/08/23 00:05:36;;;;;;;18.73;12.38;;;15.80;99.90;;;;;;4949798;29;20031;-93
2021/08/23 00:08:01;;;;;;;34.42;18.15;;;15.80;99.90;;;;;;4945848;29;20570;-92
2021/08/23 00:10:28;;;;;;;30.98;18.80;;;15.80;99.90;;;;;;4928732;29;20398;-91
2021/08/23 00:12:54;;;;;;;29.90;18.25;;;15.80;99.90;;;;;;4942941;29;20051;-93
2021/08/23 00:15:20;;;;;;;32.15;19.10;;;15.80;99.90;;;;;;4943182;29;20039;-91
2021/08/23 00:17:45;;;;;;;34.03;20.10;;;15.80;99.90;;;;;;4942015;29;20031;-94
2021/08/23 00:20:16;;;;;;;39.97;22.15;;;15.80;99.90;;;;;;4942195;29;20110;-91
2021/08/23 00:22:48;;;;;;;;;;;15.80;99.90;;;;;;4942836;29;20103;-92
2021/08/23 00:25:17;;;;;;;36.25;20.30;;;15.80;99.90;;;;;;4941832;29;19906;-92
2021/08/23 00:27:43;;;;;;;37.63;21.20;;;15.70;99.90;;;;;;4941600;29;20122;-93
2021/08/23 00:30:11;;;;;;;27.75;17.98;;;15.70;99.90;;;;;;4941601;28;20047;-94
2021/08/23 00:32:38;;;;;;;37.00;20.83;;;15.70;99.90;;;;;;4941166;29;20023;-94
2021/08/23 00:35:04;;;;;;;28.52;18.90;;;15.70;99.90;;;;;;4941377;29;20038;-93
2021/08/23 00:37:30;;;;;;;31.00;18.67;;;15.70;99.90;;;;;;4941014;29;20105;-93
2021/08/23 00:39:56;;;;;;;30.45;19.67;;;15.70;99.90;;;;;;4941193;29;20031;-93
2021/08/23 00:42:22;;;;;;;33.83;20.23;;;15.70;99.90;;;;;;4941799;29;20042;-92
2021/08/23 00:44:48;;;;;;;31.27;18.02;;;15.60;99.90;;;;;;4938822;29;20437;-93
2021/08/23 00:47:14;;;;;;;32.65;18.25;;;15.60;99.90;;;;;;4931080;29;20056;-95
2021/08/23 00:49:41;;;;;;;30.38;18.63;;;15.60;99.90;;;;;;4927002;29;20026;-95
2021/08/23 00:52:08;;;;;;;30.88;19.02;;;15.60;99.90;;;;;;4914986;29;20023;-96
2021/08/23 00:54:35;;;;;;;32.47;18.77;;;15.60;99.90;;;;;;4929485;29;20234;-94
2021/08/23 00:57:05;;;;;;;40.38;19.05;;;15.50;99.90;;;;;;4942222;29;20514;-95
2021/08/23 00:59:34;;;;;;;35.10;19.13;;;15.50;99.90;;;;;;4921315;29;20556;-95
2021/08/23 01:02:19;;;;;;;33.08;19.35;;;15.50;99.90;;;;;;4921504;29;20031;-93
2021/08/23 01:04:50;;;;;;;37.33;19.05;;;15.50;99.90;;;;;;4921402;29;20505;-91
2021/08/23 01:07:19;;;;;;;31.70;18.45;;;15.60;99.90;;;;;;4921140;29;20031;-95
2021/08/23 01:10:00;;;;;;;32.38;18.38;;;15.60;99.90;;;;;;4921012;29;20034;-95
2021/08/23 01:12:26;;;;;;;26.77;15.23;;;15.60;99.90;;;;;;4921346;29;20076;-94
2021/08/23 01:14:53;;;;;;;30.88;17.52;;;15.60;99.90;;;;;;4921310;29;20038;-95
2021/08/23 01:17:19;;;;;;;24.42;15.30;;;15.60;99.90;;;;;;4920954;29;20035;-95
2021/08/23 01:19:51;;;;;;;23.48;13.35;;;15.60;99.90;;;;;;4921411;29;20028;-96
2021/08/23 01:22:17;;;;;;;24.45;14.43;;;15.60;99.90;;;;;;4921069;29;20031;-94
2021/08/23 01:24:46;;;;;;;25.92;15.85;;;15.60;99.90;;;;;;4921153;29;20027;-94
2021/08/23 01:27:13;;;;;;;24.25;14.70;;;15.50;99.90;;;;;;4921437;29;20036;-93
2021/08/23 01:30:02;;;;;;;26.15;14.20;;;15.60;99.90;;;;;;4920842;29;20043;-93
2021/08/23 01:32:29;;;;;;;28.30;14.65;;;15.50;99.90;;;;;;4911155;29;20051;-94
2021/08/23 01:34:56;;;;;;;21.52;14.13;;;15.50;99.90;;;;;;4922141;29;20027;-94
2021/08/23 01:37:23;;;;;;;22.40;13.10;;;15.50;99.90;;;;;;4920651;29;20058;-94
2021/08/23 01:39:50;;;;;;;26.10;12.98;;;15.50;99.90;;;;;;4923606;29;20032;-96
2021/08/23 01:42:15;;;;;;;20.70;12.73;;;15.50;99.90;;;;;;4925226;29;20028;-96
2021/08/23 01:44:41;;;;;;;21.75;12.43;;;15.40;99.90;;;;;;4924743;29;20038;-94
2021/08/23 01:47:08;;;;;;;19.30;11.30;;;15.40;99.90;;;;;;4924563;29;20122;-96
2021/08/23 01:49:34;;;;;;;16.65;10.07;;;15.30;99.90;;;;;;4924054;29;20125;-95
2021/08/23 01:51:59;;;;;;;15.43;8.93;;;15.30;99.90;;;;;;4930238;29;20248;-95
2021/08/23 01:54:25;;;;;;;21.70;10.32;;;15.30;99.90;;;;;;4926712;29;20023;-96
2021/08/23 01:56:51;;;;;;;20.10;9.45;;;15.20;99.90;;;;;;4925588;29;20027;-96
2021/08/23 01:59:16;;;;;;;22.60;9.13;;;15.20;99.90;;;;;;4922997;29;20119;-96
2021/08/23 02:01:56;;;;;;;20.42;10.55;;;15.20;99.90;;;;;;4929537;28;20095;-96
2021/08/23 02:04:22;;;;;;;19.40;9.88;;;15.20;99.90;;;;;;4923482;29;20038;-94
2021/08/23 02:06:48;;;;;;;20.77;10.70;;;15.20;99.90;;;;;;4907850;29;20035;-94
2021/08/23 02:09:14;;;;;;;21.65;10.50;;;15.10;99.90;;;;;;4924026;29;20023;-93
2021/08/23 02:11:39;;;;;;;19.25;11.30;;;15.10;99.90;;;;;;4923242;29;20031;-94
2021/08/23 02:14:05;;;;;;;23.35;12.05;;;15.20;99.90;;;;;;4923693;29;20371;-95
2021/08/23 02:16:31;;;;;;;24.20;12.98;;;15.10;99.90;;;;;;4924624;29;20020;-93
2021/08/23 02:18:56;;;;;;;28.55;15.25;;;15.10;99.90;;;;;;4924479;29;20398;-94
2021/08/23 02:21:22;;;;;;;27.95;14.23;;;15.10;99.90;;;;;;4908098;29;20027;-93
2021/08/23 02:23:52;;;;;;;27.25;14.18;;;15.10;99.90;;;;;;4931925;29;20059;-94
2021/08/23 02:26:18;;;;;;;33.45;14.02;;;15.20;99.90;;;;;;4944790;29;20104;-93
2021/08/23 02:28:43;;;;;;;25.42;14.43;;;15.20;99.90;;;;;;4940191;29;20035;-93
2021/08/23 02:31:09;;;;;;;27.35;16.10;;;15.10;99.90;;;;;;4943738;29;20055;-93
2021/08/23 02:33:35;;;;;;;33.33;16.52;;;15.20;99.90;;;;;;4933983;29;20050;-92
2021/08/23 02:36:01;;;;;;;31.77;16.35;;;15.20;99.90;;;;;;4924303;29;20584;-94
2021/08/23 02:38:28;;;;;;;25.98;15.65;;;15.20;99.90;;;;;;4923699;29;20569;-94
2021/08/23 02:40:53;;;;;;;33.33;17.38;;;15.20;99.90;;;;;;4923738;29;20050;-95
2021/08/23 02:43:19;;;;;;;30.88;17.63;;;15.20;99.90;;;;;;4923390;29;20028;-94
2021/08/23 02:45:45;;;;;;;28.88;16.25;;;15.20;99.90;;;;;;4923251;29;20043;-94
2021/08/23 02:48:10;;;;;;;36.45;17.10;;;15.20;99.90;;;;;;4922937;29;20032;-93
2021/08/23 02:50:36;;;;;;;28.45;15.75;;;15.20;99.90;;;;;;4922278;29;20031;-93
2021/08/23 02:53:02;;;;;;;33.78;17.10;;;15.20;99.90;;;;;;4922897;29;20453;-94
2021/08/23 02:55:28;;;;;;;33.35;18.08;;;15.20;99.90;;;;;;4924550;29;20034;-93
2021/08/23 02:57:53;;;;;;;34.25;15.65;;;15.20;99.90;;;;;;4924207;29;20528;-94
2021/08/23 03:00:19;;;;;;;34.00;15.80;;;15.20;99.90;;;;;;4923876;29;20390;-93
2021/08/23 03:02:45;;;;;;;32.15;16.67;;;15.20;99.90;;;;;;4924086;29;20456;-94
2021/08/23 03:05:10;;;;;;;25.63;14.95;;;15.20;99.90;;;;;;4924476;29;20038;-93
2021/08/23 03:07:36;;;;;;;30.35;13.48;;;15.20;99.90;;;;;;4925775;29;20027;-96
2021/08/23 03:10:03;;;;;;;21.45;12.82;;;15.10;99.90;;;;;;4926977;29;20079;-96
2021/08/23 03:12:29;;;;;;;25.48;12.63;;;15.10;99.90;;;;;;4950819;28;20079;-96
2021/08/23 03:14:55;;;;;;;19.00;11.95;;;15.10;99.90;;;;;;4945021;28;20047;-95
2021/08/23 03:17:23;;;;;;;20.30;10.88;;;15.10;99.90;;;;;;4937220;29;20052;-96
2021/08/23 03:19:48;;;;;;;18.08;10.95;;;15.10;99.90;;;;;;4941068;29;20032;-95
2021/08/23 03:22:14;;;;;;;16.60;10.05;;;15.10;99.90;;;;;;4942448;29;20513;-96
2021/08/23 03:24:40;;;;;;;18.70;10.32;;;15.10;99.90;;;;;;4926390;29;20047;-96
2021/08/23 03:27:06;;;;;;;21.90;10.95;;;15.10;99.90;;;;;;4934645;29;20067;-96
2021/08/23 03:29:32;;;;;;;19.67;10.50;;;15.10;99.90;;;;;;4932973;29;20075;-96
2021/08/23 03:31:58;;;;;;;21.88;9.73;;;15.00;99.90;;;;;;4916533;29;20548;-96
2021/08/23 03:34:26;;;;;;;18.27;10.00;;;15.10;99.90;;;;;;4929283;29;20064;-95
2021/08/23 03:36:52;;;;;;;20.83;9.32;;;15.10;99.90;;;;;;4927231;29;20046;-95
2021/08/23 03:39:18;;;;;;;16.67;9.13;;;15.10;99.90;;;;;;4925707;29;20046;-96
2021/08/23 03:41:44;;;;;;;18.23;9.93;;;15.10;99.90;;;;;;4924699;29;20124;-96
2021/08/23 03:44:09;;;;;;;18.63;10.02;;;15.10;99.90;;;;;;4926837;29;20024;-96
2021/08/23 03:46:35;;;;;;;15.35;10.02;;;15.10;99.90;;;;;;4927121;29;20039;-96
2021/08/23 03:49:03;;;;;;;18.35;10.57;;;15.00;99.90;;;;;;4909952;29;20036;-96
2021/08/23 03:51:29;;;;;;;14.65;9.57;;;15.10;99.90;;;;;;4925449;29;20095;-96
2021/08/23 03:53:55;;;;;;;14.07;9.43;;;15.00;99.90;;;;;;4909399;29;20055;-96
2021/08/23 03:56:21;;;;;;;17.80;9.57;;;15.10;99.90;;;;;;4925827;29;20027;-96
2021/08/23 03:58:47;;;;;;;16.17;9.43;;;15.00;99.90;;;;;;4927651;29;20077;-96
2021/08/23 04:01:14;;;;;;;16.23;10.65;;;15.00;99.90;;;;;;4948154;29;20027;-95
2021/08/23 04:03:40;;;;;;;18.55;8.93;;;15.00;99.90;;;;;;4933823;29;20118;-96
2021/08/23 04:06:11;;;;;;;14.93;9.13;;;15.00;99.90;;;;;;4933785;29;20026;-96
2021/08/23 04:08:42;;;;;;;13.13;8.13;;;15.00;99.90;;;;;;4918434;29;20032;-96
2021/08/23 04:11:17;;;;;;;12.07;7.70;;;15.00;99.90;;;;;;4931706;29;20072;-96
2021/08/23 04:13:54;;;;;;;14.07;8.68;;;15.00;99.90;;;;;;4932053;29;20043;-96
2021/08/23 04:16:19;;;;;;;15.38;7.20;;;15.00;99.90;;;;;;4926629;29;20028;-95
2021/08/23 04:18:46;;;;;;;21.88;8.50;;;15.00;99.90;;;;;;4929976;29;20385;-96
2021/08/23 04:21:12;;;;;;;10.80;7.35;;;15.00;99.90;;;;;;4916184;29;20499;-96
2021/08/23 04:23:37;;;;;;;12.43;6.55;;;15.00;99.90;;;;;;4927367;29;20122;-96
2021/08/23 04:26:03;;;;;;;13.52;6.55;;;15.00;99.90;;;;;;4924639;29;20027;-96
2021/08/23 04:28:31;;;;;;;14.90;7.05;;;15.00;99.90;;;;;;4929064;29;20044;-96
2021/08/23 04:30:57;;;;;;;12.13;6.72;;;14.90;99.90;;;;;;4926146;29;20566;-96
2021/08/23 04:33:23;;;;;;;11.95;6.35;;;14.90;99.90;;;;;;4923155;29;20035;-94
2021/08/23 04:35:48;;;;;;;8.85;6.20;;;14.90;99.90;;;;;;4920922;29;20145;-94
2021/08/23 04:38:14;;;;;;;12.38;6.57;;;14.90;99.90;;;;;;4921004;29;20111;-95
2021/08/23 04:40:40;;;;;;;11.07;5.60;;;14.90;99.90;;;;;;4920689;29;20079;-95
2021/08/23 04:43:06;;;;;;;11.25;6.38;;;14.90;99.90;;;;;;4920742;29;20024;-96
2021/08/23 04:45:31;;;;;;;10.90;5.65;;;14.90;99.90;;;;;;4920628;29;20023;-95
2021/08/23 04:47:57;;;;;;;8.63;5.82;;;14.90;99.90;;;;;;4920969;29;20043;-96
2021/08/23 04:50:23;;;;;;;9.18;6.13;;;14.90;99.90;;;;;;4920999;29;20043;-95
2021/08/23 04:52:48;;;;;;;9.77;6.50;;;14.90;99.90;;;;;;4920339;29;20043;-96
2021/08/23 04:55:15;;;;;;;11.07;6.82;;;14.90;99.90;;;;;;4920700;29;20024;-95
2021/08/23 04:57:41;;;;;;;12.07;6.85;;;14.90;99.90;;;;;;4937093;29;20096;-94
2021/08/23 05:00:11;;;;;;;12.20;7.32;;;14.90;99.90;;;;;;4924329;29;20055;-96
2021/08/23 05:02:39;;;;;;;14.70;7.25;;;14.90;99.90;;;;;;4935473;29;20031;-96
2021/08/23 05:05:09;;;;;;;9.80;6.47;;;14.80;99.90;;;;;;4937675;29;20043;-96
2021/08/23 05:07:41;;;;;;;11.82;6.82;;;14.90;99.90;;;;;;4937821;29;20032;-96
2021/08/23 05:10:32;;;;;;;11.52;6.60;;;14.90;99.90;;;;;;4956274;29;20028;-96
2021/08/23 05:13:55;;;;;;;11.68;6.88;;;14.90;99.90;;;;;;4937126;29;20107;-95
2021/08/23 05:16:25;;;;;;;13.10;7.03;;;14.80;99.90;;;;;;4961462;29;20042;-96
2021/08/23 05:18:50;;;;;;;14.73;7.53;;;14.80;99.90;;;;;;4926645;29;20549;-94
2021/08/23 05:21:16;;;;;;;10.43;7.30;;;14.80;99.90;;;;;;4923534;29;20028;-94
2021/08/23 05:23:42;;;;;;;12.85;7.50;;;14.80;99.90;;;;;;4923696;29;20391;-95
2021/08/23 05:26:09;;;;;;;14.98;8.25;;;14.80;99.90;;;;;;4907671;29;20118;-94
2021/08/23 05:28:34;;;;;;;13.35;8.18;;;14.80;99.90;;;;;;4923485;29;20505;-96
2021/08/23 05:31:00;;;;;;;14.85;9.25;;;14.80;99.90;;;;;;4924968;29;20051;-96
2021/08/23 05:33:26;;;;;;;16.13;9.57;;;14.80;99.90;;;;;;4926799;29;20036;-95
2021/08/23 05:35:51;;;;;;;18.02;9.18;;;14.80;99.90;;;;;;4922992;29;20039;-95
2021/08/23 05:38:17;;;;;;;23.13;9.90;;;14.80;99.90;;;;;;4923827;29;20305;-95
2021/08/23 05:40:43;;;;;;;18.40;9.80;;;14.80;99.90;;;;;;4923210;29;20028;-94
2021/08/23 05:43:08;;;;;;;15.45;9.50;;;14.80;99.90;;;;;;4923213;29;20560;-92
2021/08/23 05:45:34;;;;;;;15.43;8.93;;;14.80;99.90;;;;;;4923738;29;20032;-93
2021/08/23 05:48:00;;;;;;;21.55;11.45;;;14.80;99.90;;;;;;4923857;29;20082;-95
2021/08/23 05:50:26;;;;;;;16.63;10.63;;;14.80;99.90;;;;;;4923997;29;20023;-95
2021/08/23 05:52:51;;;;;;;19.23;12.00;;;14.80;99.90;;;;;;4924444;29;20032;-95
2021/08/23 05:55:17;;;;;;;20.10;11.05;;;14.80;99.90;;;;;;4923608;29;20097;-94
2021/08/23 05:58:21;;;;;;;18.25;11.63;;;14.80;99.90;;;;;;4923310;29;20024;-94
2021/08/23 06:00:47;;;;;;;23.30;11.27;;;14.80;99.90;;;;;;4921856;29;20042;-95
2021/08/23 06:03:13;;;;;;;20.00;11.88;;;14.80;99.90;;;;;;4925322;29;20036;-95
2021/08/23 06:05:39;;;;;;;21.45;10.98;;;14.90;99.90;;;;;;4931587;29;20030;-95
2021/08/23 06:10:48;;;;;;;9.10;5.55;;;14.90;99.90;;;;;;4950012;29;20080;-96
2021/08/23 06:13:14;;;;;;;8.50;6.47;;;14.90;99.90;;;;;;4927609;29;20051;-95
2021/08/23 06:15:39;;;;;;;8.48;6.07;;;14.90;99.90;;;;;;4924269;29;20020;-94
2021/08/23 06:18:05;;;;;;;6.53;5.10;;;15.00;99.90;;;;;;4922987;29;20091;-94
2021/08/23 06:20:31;;;;;;;10.63;5.20;;;14.90;99.90;;;;;;4923075;29;20433;-95
2021/08/23 06:22:56;;;;;;;8.85;5.00;;;15.00;99.90;;;;;;4923272;29;20114;-95
2021/08/23 06:25:23;;;;;;;10.35;4.95;;;15.00;99.90;;;;;;4922601;29;20028;-93
2021/08/23 06:30:24;;;;;;;6.93;3.78;;;15.00;99.90;;;;;;5307493;23;20047;-93
2021/08/23 06:32:50;;;;;;;6.95;5.07;;;15.00;99.90;;;;;;4934132;29;20032;-94
2021/08/23 06:35:16;;;;;;;8.10;4.45;;;15.00;99.90;;;;;;4942340;29;20103;-93
2021/08/23 06:37:43;;;;;;;12.98;5.10;;;15.00;99.90;;;;;;4942125;29;20047;-93
2021/08/23 06:40:09;;;;;;;9.27;4.50;;;15.00;99.90;;;;;;4938738;29;20028;-93
2021/08/23 06:42:39;;;;;;;10.90;4.75;;;15.10;99.90;;;;;;4923143;29;20063;-92
2021/08/23 06:45:06;;;;;;;7.75;4.35;;;15.10;99.90;;;;;;4922946;29;20057;-94
2021/08/23 06:47:32;;;;;;;6.82;4.57;;;15.10;99.90;;;;;;4921710;29;20116;-94
2021/08/23 06:49:58;;;;;;;13.07;4.50;;;15.10;99.90;;;;;;4923604;29;20059;-92
2021/08/23 06:52:23;;;;;;;18.13;4.90;;;15.20;99.90;;;;;;4923534;29;20028;-93
2021/08/23 06:54:49;;;;;;;13.93;5.43;;;15.20;99.90;;;;;;4940566;29;20032;-93
2021/08/23 06:57:15;;;;;;;8.13;5.25;;;15.20;99.90;;;;;;4943975;29;20043;-93
2021/08/23 06:59:42;;;;;;;13.68;5.60;;;15.20;99.90;;;;;;4944520;29;20040;-92
2021/08/23 07:02:08;;;;;;;10.30;4.78;;;15.30;99.90;;;;;;4942771;29;20339;-95
2021/08/23 07:04:35;;;;;;;8.50;5.00;;;15.30;99.90;;;;;;4943905;29;20278;-94
2021/08/23 07:07:04;;;;;;;9.18;5.15;;;15.30;99.90;;;;;;4936505;29;20099;-94
2021/08/23 07:09:30;;;;;;;10.32;5.45;;;15.40;99.90;;;;;;4932890;29;20024;-93
2021/08/23 07:11:56;;;;;;;11.10;5.10;;;15.50;99.90;;;;;;4932319;29;20036;-94
2021/08/23 07:14:22;;;;;;;10.18;5.05;;;15.60;99.90;;;;;;4929330;29;20127;-93
2021/08/23 07:16:48;;;;;;;7.50;5.32;;;15.70;99.90;;;;;;4933041;29;20027;-92
2021/08/23 07:19:13;;;;;;;14.40;5.95;;;15.70;99.90;;;;;;4924777;29;20489;-91
2021/08/23 07:21:39;;;;;;;7.00;4.57;;;15.70;99.90;;;;;;4923060;29;20043;-91
2021/08/23 07:24:06;;;;;;;8.90;5.38;;;15.80;99.90;;;;;;4923813;29;20074;-93
2021/08/23 07:26:32;;;;;;;7.22;4.78;;;15.80;99.90;;;;;;4923153;29;20118;-93
2021/08/23 07:28:58;;;;;;;11.57;6.28;;;15.80;99.90;;;;;;4937777;29;20054;-93
2021/08/23 08:01:29;;;;;;;;;;;;;;;;;;;;;
2021/08/23 08:07:48;;;;;;;5.75;4.78;;;16.10;99.90;;;;;;4944535;28;20030;-95
2021/08/23 08:10:26;;;;;;;9.25;4.53;;;16.20;99.90;;;;;;4957393;28;20023;-95
2021/08/23 08:16:32;;;;;;;7.50;4.20;;;16.40;99.90;;;;;;4909770;29;20028;-95
2021/08/23 08:22:33;;;;;;;;;;;;;;;;;;;;;
2021/08/23 08:25:17;;;;;;;6.43;4.65;;;16.70;99.90;;;;;;4905616;29;20033;-95
2021/08/23 08:28:34;;;;;;;8.50;4.70;;;16.90;99.90;;;;;;4898667;29;20048;-96
2021/08/23 08:31:19;;;;;;;8.27;5.38;;;17.00;99.90;;;;;;4885101;29;20032;-95
2021/08/23 08:47:26;;;;;;;7.40;4.40;;;17.50;99.90;;;;;;4992720;23;20429;-95
2021/08/23 08:50:09;;;;;;;7.90;4.55;;;17.50;99.90;;;;;;4921969;29;20055;-95
2021/08/23 08:53:19;;;;;;;6.53;3.35;;;17.50;99.90;;;;;;4909903;29;20051;-95
2021/08/23 08:59:28;;;;;;;;;;;;;;;;;;;;;
2021/08/23 09:03:09;;;;;;;7.78;3.33;;;17.10;99.90;;;;;;4931891;29;20036;-95
2021/08/23 09:05:23;;;;;;;9.02;3.55;;;17.10;99.90;;;;;;4866971;29;20072;-96
2021/08/23 09:07:51;;;;;;;3.55;3.17;;;17.20;99.90;;;;;;4864430;29;20511;-96
2021/08/23 09:10:39;;;;;;;5.85;2.70;;;17.20;99.90;;;;;;4864965;29;20120;-96
2021/08/23 09:13:26;;;;;;;6.95;2.90;;;17.20;99.90;;;;;;4872523;29;20756;-96
2021/08/23 09:15:56;;;;;;;3.85;2.63;;;17.30;99.90;;;;;;4886012;29;20025;-96
2021/08/23 09:18:27;;;;;;;4.53;2.35;;;17.30;99.90;;;;;;4870846;29;20547;-96
2021/08/23 09:20:59;;;;;;;6.13;2.50;;;17.30;99.90;;;;;;4880169;29;20029;-95
2021/08/23 09:23:38;;;;;;;5.13;2.83;;;17.20;99.90;;;;;;4874147;29;20033;-95
2021/08/23 09:26:09;;;;;;;3.38;2.90;;;17.20;99.90;;;;;;4861932;29;20033;-94
2021/08/23 09:28:35;;;;;;;;;;;17.30;99.90;;;;;;4866036;29;20037;-95
2021/08/23 09:31:03;;;;;;;6.47;3.22;;;17.30;99.90;;;;;;4863931;29;19933;-95
2021/08/23 09:33:28;;;;;;;5.03;3.30;;;17.40;99.90;;;;;;4863677;29;20117;-95
2021/08/23 09:35:55;;;;;;;9.05;3.10;;;17.50;99.90;;;;;;4908939;29;20060;-93
2021/08/23 09:38:22;;;;;;;5.65;2.70;;;17.70;99.90;;;;;;4922342;29;20031;-94
2021/08/23 09:40:49;;;;;;;11.77;3.45;;;17.70;99.90;;;;;;4922975;29;20027;-95
2021/08/23 09:43:16;;;;;;;4.75;2.53;;;17.90;99.90;;;;;;4921780;29;20043;-95
2021/08/23 09:45:47;;;;;;;4.70;2.60;;;18.10;99.90;;;;;;4940987;29;20016;-94
2021/08/23 09:48:14;;;;;;;3.75;2.42;;;18.30;99.90;;;;;;4939111;29;20082;-94
2021/08/23 09:50:52;;;;;;;3.30;2.00;;;18.60;99.90;;;;;;4932508;29;20028;-95
2021/08/23 09:53:33;;;;;;;5.47;2.33;;;18.90;99.90;;;;;;4924949;29;20036;-94
2021/08/23 09:56:23;;;;;;;5.57;1.90;;;19.30;99.90;;;;;;4927379;29;20031;-93
2021/08/23 09:59:43;;;;;;;5.32;1.80;;;19.50;99.90;;;;;;4925643;29;20031;-95
2021/08/23 10:03:01;;;;;;;3.95;2.40;;;19.80;99.90;;;;;;4926120;29;20043;-95
2021/08/23 10:05:31;;;;;;;4.65;2.53;;;20.10;99.90;;;;;;4887085;29;20032;-94
2021/08/23 10:08:09;;;;;;;3.10;2.10;;;20.30;99.90;;;;;;4895483;29;20123;-95
2021/08/23 10:10:45;;;;;;;4.80;2.72;;;20.60;99.90;;;;;;4880764;29;20037;-94
2021/08/23 10:14:05;;;;;;;4.65;2.63;;;20.90;99.90;;;;;;4873094;29;20084;-96
2021/08/23 10:16:32;;;;;;;5.18;2.63;;;21.10;99.70;;;;;;4877839;29;20048;-96
2021/08/23 10:18:59;;;;;;;4.95;2.75;;;21.30;99.00;;;;;;4873411;29;20032;-95
2021/08/23 10:21:26;;;;;;;3.83;1.98;;;21.40;97.60;;;;;;4878475;29;20048;-95
2021/08/23 10:24:07;;;;;;;3.85;2.20;;;21.50;96.40;;;;;;4891389;29;20033;-95
2021/08/23 10:26:43;;;;;;;7.07;2.20;;;21.50;95.90;;;;;;4871478;29;20119;-95
2021/08/23 10:29:18;;;;;;;2.55;1.77;;;21.60;94.90;;;;;;4881309;29;20029;-94
2021/08/23 10:31:50;;;;;;;3.83;1.95;;;21.60;93.90;;;;;;4877494;29;20029;-94
2021/08/23 10:34:28;;;;;;;4.07;2.10;;;21.60;93.40;;;;;;4884077;29;20041;-94
2021/08/23 10:37:00;;;;;;;4.88;2.45;;;21.60;92.80;;;;;;4915251;29;20051;-95
2021/08/23 10:39:27;;;;;;;3.72;1.90;;;21.70;92.90;;;;;;4923017;29;20020;-95
2021/08/23 10:41:57;;;;;;;2.90;1.90;;;21.80;92.80;;;;;;4927302;29;20024;-96
2021/08/23 10:44:59;;;;;;;2.65;1.75;;;22.00;92.20;;;;;;4926038;29;20039;-95
2021/08/23 10:47:30;;;;;;;5.40;1.80;;;22.00;91.50;;;;;;4941717;29;20050;-95
2021/08/23 10:49:59;;;;;;;3.17;1.70;;;22.20;91.00;;;;;;4924340;29;20023;-94
2021/08/23 10:52:36;;;;;;;3.53;1.50;;;22.30;90.70;;;;;;4923488;29;20043;-95
2021/08/23 10:55:07;;;;;;;2.97;1.60;;;22.30;90.30;;;;;;4923501;29;20028;-95
2021/08/23 10:57:35;;;;;;;3.05;1.80;;;22.50;89.40;;;;;;4924922;29;20024;-95
2021/08/23 11:00:14;;;;;;;2.75;1.67;;;22.70;87.20;;;;;;4920680;29;20028;-95
2021/08/23 11:02:40;;;;;;;3.90;1.80;;;22.70;85.10;;;;;;4921106;29;20035;-94
2021/08/23 11:05:20;;;;;;;2.65;1.45;;;22.80;84.90;;;;;;4924444;29;20054;-94
2021/08/23 11:07:50;;;;;;;3.15;1.70;;;22.90;84.20;;;;;;4924885;29;20020;-95
2021/08/23 11:10:18;;;;;;;1.60;1.25;;;22.90;83.90;;;;;;4925102;29;20079;-95
2021/08/23 11:12:51;;;;;;;4.03;1.65;;;22.90;83.40;;;;;;4939576;28;20027;-95
2021/08/23 11:19:26;;;;;;;4.10;1.60;;;23.00;83.00;;;;;;4832135;29;20068;-95
2021/08/23 11:22:23;;;;;;;3.47;1.85;;;23.20;82.40;;;;;;4847274;29;20067;-95
2021/08/23 11:25:38;;;;;;;4.35;1.42;;;23.40;82.20;;;;;;4835177;29;20129;-95
2021/08/23 11:28:31;;;;;;;3.45;1.50;;;23.70;80.00;;;;;;4830283;29;20041;-95
2021/08/23 11:31:05;;;;;;;6.57;2.00;;;23.70;79.60;;;;;;4821203;29;20451;-95
2021/08/23 11:33:40;;;;;;;6.85;1.80;;;23.50;79.80;;;;;;4828201;29;20557;-94
2021/08/23 11:36:24;;;;;;;4.00;1.60;;;23.40;80.10;;;;;;4822095;29;20030;-95
2021/08/23 11:38:51;;;;;;;4.53;1.92;;;23.30;79.90;;;;;;4831557;29;20066;-95
2021/08/23 11:41:17;;;;;;;4.53;1.65;;;23.30;79.40;;;;;;4829499;29;20034;-94
2021/08/23 11:43:44;;;;;;;4.05;1.88;;;23.40;78.50;;;;;;4843966;29;20026;-95
2021/08/23 11:46:12;;;;;;;4.72;1.70;;;23.60;77.90;;;;;;4829295;29;20036;-95
2021/08/23 11:48:38;;;;;;;1.95;1.23;;;23.70;77.00;;;;;;4813865;29;20483;-94
2021/08/23 11:51:04;;;;;;;3.60;1.45;;;23.90;76.10;;;;;;4811172;29;20110;-95
2021/08/23 11:53:34;;;;;;;2.65;1.60;;;23.90;75.40;;;;;;4838681;29;20143;-94
2021/08/23 11:56:28;;;;;;;3.53;1.75;;;24.00;74.90;;;;;;4900863;29;20570;-93
2021/08/23 11:58:56;;;;;;;4.18;1.65;;;24.20;73.80;;;;;;4908287;29;20484;-94
2021/08/23 12:01:27;;;;;;;2.70;1.17;;;24.30;72.80;;;;;;4901042;29;20132;-95
2021/08/23 12:04:07;;;;;;;3.03;1.30;;;24.30;72.30;;;;;;4893415;29;20024;-94
2021/08/23 12:06:40;;;;;;;3.60;1.77;;;24.30;71.00;;;;;;4885019;29;20028;-95
2021/08/23 12:09:08;;;;;;;4.25;1.85;;;24.40;71.30;;;;;;4913635;29;20393;-94
2021/08/23 12:11:45;;;;;;;5.60;1.98;;;24.60;71.50;;;;;;4892685;29;20036;-95
2021/08/23 12:17:35;;;;;;;2.95;1.33;;;25.00;70.90;;;;;;4917629;29;20070;-94
2021/08/23 12:20:31;;;;;;;5.53;1.75;;;25.40;70.90;;;;;;4866177;29;20036;-95
2021/08/23 12:34:27;;;;;;;5.28;1.92;;;26.00;67.80;;;;;;4881106;29;20060;-96
2021/08/23 12:36:56;;;;;;;7.57;1.58;;;25.90;67.30;;;;;;4862927;29;20038;-96
2021/08/23 12:39:28;;;;;;;4.35;1.73;;;26.20;67.90;;;;;;4861047;29;20029;-96
2021/08/23 12:41:57;;;;;;;2.35;1.60;;;26.50;66.80;;;;;;4861614;29;20029;-94
2021/08/23 12:44:26;;;;;;;3.53;1.60;;;26.80;66.00;;;;;;4978092;24;20055;-95
2021/08/23 12:46:52;;;;;;;3.28;2.08;;;26.80;65.40;;;;;;4919632;29;20035;-95
2021/08/23 12:49:19;;;;;;;3.67;1.83;;;26.50;65.00;;;;;;4918488;29;20039;-95
2021/08/23 12:51:46;;;;;;;3.15;1.98;;;26.40;65.40;;;;;;4913503;29;20044;-94
2021/08/23 12:54:12;;;;;;;7.30;1.95;;;26.30;64.90;;;;;;4915093;29;20032;-94
2021/08/23 12:56:39;;;;;;;2.38;1.40;;;26.20;65.20;;;;;;4911195;29;20021;-93
2021/08/23 12:59:06;;;;;;;5.80;1.83;;;26.20;65.40;;;;;;4911812;29;20048;-93
2021/08/23 13:01:52;;;;;;;2.92;1.90;;;26.40;65.00;;;;;;4912451;29;20036;-95
2021/08/23 13:04:18;;;;;;;4.43;1.80;;;26.40;64.20;;;;;;4914516;29;20071;-96
2021/08/23 13:07:08;;;;;;;4.68;1.63;;;26.10;63.80;;;;;;4915301;29;20028;-96
2021/08/23 13:09:34;;;;;;;3.72;1.90;;;26.10;64.20;;;;;;4934601;29;20055;-96
2021/08/23 13:12:00;;;;;;;2.58;1.90;;;26.20;63.40;;;;;;4916081;29;20028;-96
2021/08/23 13:26:06;;;;;;;3.22;1.70;;;25.90;61.70;;;;;;4918634;29;20116;-93
2021/08/23 13:28:35;;;;;;;2.60;1.70;;;25.90;62.20;;;;;;4905516;29;20043;-96
2021/08/23 13:31:07;;;;;;;2.70;2.15;;;26.10;62.00;;;;;;4906604;29;20013;-96
2021/08/23 13:34:29;;;;;;;4.65;2.28;;;26.20;62.50;;;;;;4896563;29;20044;-96
2021/08/23 13:37:04;;;;;;;3.15;1.98;;;26.30;61.70;;;;;;4847372;23;20040;-96
2021/08/23 13:39:33;;;;;;;2.55;2.10;;;26.10;62.10;;;;;;4935648;29;20043;-95
2021/08/23 13:42:17;;;;;;;5.15;1.92;;;25.90;62.80;;;;;;4942368;29;20035;-95
2021/08/23 13:45:21;;;;;;;3.75;1.98;;;26.00;62.90;;;;;;4937722;29;20028;-96
2021/08/23 13:48:37;;;;;;;7.90;2.05;;;26.30;63.30;;;;;;4942239;29;20020;-96
2021/08/23 13:51:14;;;;;;;5.30;2.25;;;26.60;62.80;;;;;;4959929;29;20036;-95
2021/08/23 13:53:54;;;;;;;4.47;2.45;;;26.90;62.20;;;;;;4941312;29;20036;-95
2021/08/23 13:56:21;;;;;;;2.58;1.80;;;27.20;60.80;;;;;;4944426;29;20103;-96
2021/08/23 13:59:28;;;;;;;3.20;1.80;;;27.10;60.10;;;;;;4941634;29;20027;-96
2021/08/23 14:01:54;;;;;;;5.60;1.98;;;27.20;60.00;;;;;;4942654;29;20051;-96
2021/08/23 14:04:20;;;;;;;3.38;2.15;;;27.00;59.50;;;;;;4925903;29;20038;-96
2021/08/23 14:06:50;;;;;;;2.47;1.60;;;27.00;59.60;;;;;;4941680;29;20063;-95
2021/08/23 14:09:21;;;;;;;3.90;1.63;;;27.00;59.20;;;;;;4942571;29;20091;-96
2021/08/23 14:11:46;;;;;;;1.98;1.40;;;27.00;59.30;;;;;;4931080;29;20028;-96
2021/08/23 14:14:16;;;;;;;4.68;2.03;;;27.20;59.30;;;;;;4940516;29;20047;-96
2021/08/23 14:16:42;;;;;;;2.92;1.90;;;27.50;59.50;;;;;;4921849;29;20080;-96
2021/08/23 14:19:14;;;;;;;2.92;1.40;;;27.70;58.80;;;;;;4934250;29;20079;-96
2021/08/23 14:21:43;;;;;;;5.18;1.65;;;27.60;58.10;;;;;;4925090;29;20039;-95
2021/08/23 14:24:09;;;;;;;2.70;1.30;;;27.60;58.20;;;;;;4912721;29;20098;-94
2021/08/23 14:26:39;;;;;;;2.90;1.60;;;27.70;57.90;;;;;;4929251;29;20043;-96
2021/08/23 14:29:32;;;;;;;3.00;1.27;;;27.80;57.40;;;;;;4942062;29;20145;-95
2021/08/23 14:34:30;;;;;;;2.75;1.45;;;28.20;57.10;;;;;;5024333;23;20071;-96
2021/08/23 14:36:55;;;;;;;2.25;1.27;;;28.30;56.80;;;;;;4946802;29;20031;-96
2021/08/23 14:39:23;;;;;;;5.65;1.88;;;28.30;56.60;;;;;;4945303;29;20027;-95